sensor_id;sensor_type;location;lat;lon;timestamp;P1;durP1;ratioP1;P2;durP2;ratioP2
18196;SDS011;9224;52.422;13.024;2023-11-19T00:01:32;142.47;;;117.70;;
18196;SDS011;9224;52.422;13.024;2023-11-19T00:03:59;139.13;;;116.43;;
18196;SDS011;9224;52.422;13.024;2023-11-19T00:06:25;141.57;;;117.40;;
18196;SDS011;9224;52.422;13.024;2023-11-19T00:08:54;141.73;;;118.33;;
18196;SDS011;9224;52.422;13.024;2023-11-19T00:11:21;141.13;;;117.27;;
18196;SDS011;9224;52.422;13.024;2023-11-19T00:13:47;141.53;;;117.23;;
18196;SDS011;9224;52.422;13.024;2023-11-19T00:16:14;146.10;;;117.87;;
18196;SDS011;9224;52.422;13.024;2023-11-19T00:18:41;143.43;;;118.00;;
18196;SDS011;9224;52.422;13.024;2023-11-19T00:21:08;142.33;;;118.60;;
18196;SDS011;9224;52.422;13.024;2023-11-19T00:23:35;141.47;;;118.13;;
18196;SDS011;9224;52.422;13.024;2023-11-19T00:26:04;142.30;;;118.10;;
18196;SDS011;9224;52.422;13.024;2023-11-19T00:28:31;142.00;;;118.23;;
18196;SDS011;9224;52.422;13.024;2023-11-19T00:31:02;144.90;;;119.23;;
18196;SDS011;9224;52.422;13.024;2023-11-19T00:33:29;142.83;;;117.80;;
18196;SDS011;9224;52.422;13.024;2023-11-19T00:35:56;142.17;;;117.70;;
18196;SDS011;9224;52.422;13.024;2023-11-19T00:38:22;142.77;;;118.87;;
18196;SDS011;9224;52.422;13.024;2023-11-19T00:40:49;142.03;;;118.37;;
18196;SDS011;9224;52.422;13.024;2023-11-19T00:43:17;140.87;;;117.23;;
18196;SDS011;9224;52.422;13.024;2023-11-19T00:45:47;141.33;;;117.37;;
18196;SDS011;9224;52.422;13.024;2023-11-19T00:48:15;142.93;;;118.53;;
18196;SDS011;9224;52.422;13.024;2023-11-19T00:50:42;141.63;;;117.40;;
18196;SDS011;9224;52.422;13.024;2023-11-19T00:53:10;143.53;;;118.17;;
18196;SDS011;9224;52.422;13.024;2023-11-19T00:55:37;145.67;;;118.57;;
18196;SDS011;9224;52.422;13.024;2023-11-19T00:58:03;141.97;;;116.83;;
18196;SDS011;9224;52.422;13.024;2023-11-19T01:00:31;142.77;;;117.73;;
18196;SDS011;9224;52.422;13.024;2023-11-19T01:02:58;142.50;;;117.70;;
18196;SDS011;9224;52.422;13.024;2023-11-19T01:05:25;143.57;;;118.00;;
18196;SDS011;9224;52.422;13.024;2023-11-19T01:07:53;142.70;;;117.63;;
18196;SDS011;9224;52.422;13.024;2023-11-19T01:10:20;141.57;;;117.57;;
18196;SDS011;9224;52.422;13.024;2023-11-19T01:12:47;140.20;;;117.57;;
18196;SDS011;9224;52.422;13.024;2023-11-19T01:15:14;142.93;;;117.80;;
18196;SDS011;9224;52.422;13.024;2023-11-19T01:17:42;142.27;;;117.90;;
18196;SDS011;9224;52.422;13.024;2023-11-19T01:20:09;140.33;;;117.07;;
18196;SDS011;9224;52.422;13.024;2023-11-19T01:22:38;142.03;;;118.13;;
18196;SDS011;9224;52.422;13.024;2023-11-19T01:25:05;142.37;;;118.67;;
18196;SDS011;9224;52.422;13.024;2023-11-19T01:27:32;142.53;;;117.57;;
18196;SDS011;9224;52.422;13.024;2023-11-19T01:30:00;141.77;;;117.70;;
18196;SDS011;9224;52.422;13.024;2023-11-19T01:32:28;139.90;;;116.97;;
18196;SDS011;9224;52.422;13.024;2023-11-19T01:34:56;139.90;;;116.97;;
18196;SDS011;9224;52.422;13.024;2023-11-19T01:37:23;140.80;;;116.30;;
18196;SDS011;9224;52.422;13.024;2023-11-19T01:39:50;139.03;;;116.33;;
18196;SDS011;9224;52.422;13.024;2023-11-19T01:42:16;140.63;;;116.63;;
18196;SDS011;9224;52.422;13.024;2023-11-19T01:44:54;140.57;;;116.60;;
18196;SDS011;9224;52.422;13.024;2023-11-19T01:47:22;141.23;;;117.40;;
18196;SDS011;9224;52.422;13.024;2023-11-19T01:49:49;139.27;;;117.27;;
18196;SDS011;9224;52.422;13.024;2023-11-19T01:52:17;138.37;;;115.60;;
18196;SDS011;9224;52.422;13.024;2023-11-19T01:54:45;141.10;;;117.10;;
18196;SDS011;9224;52.422;13.024;2023-11-19T01:57:12;140.20;;;117.00;;
18196;SDS011;9224;52.422;13.024;2023-11-19T01:59:39;140.27;;;116.67;;
18196;SDS011;9224;52.422;13.024;2023-11-19T02:02:07;139.67;;;116.93;;
18196;SDS011;9224;52.422;13.024;2023-11-19T02:04:33;140.67;;;116.80;;
18196;SDS011;9224;52.422;13.024;2023-11-19T02:07:00;140.93;;;117.10;;
18196;SDS011;9224;52.422;13.024;2023-11-19T02:09:28;140.80;;;116.07;;
18196;SDS011;9224;52.422;13.024;2023-11-19T02:11:55;140.73;;;116.93;;
18196;SDS011;9224;52.422;13.024;2023-11-19T02:14:22;142.33;;;118.10;;
18196;SDS011;9224;52.422;13.024;2023-11-19T02:16:52;140.93;;;116.93;;
18196;SDS011;9224;52.422;13.024;2023-11-19T02:19:19;140.67;;;117.23;;
18196;SDS011;9224;52.422;13.024;2023-11-19T02:21:45;139.47;;;116.97;;
18196;SDS011;9224;52.422;13.024;2023-11-19T02:24:13;138.93;;;116.80;;
18196;SDS011;9224;52.422;13.024;2023-11-19T02:26:44;139.10;;;116.50;;
18196;SDS011;9224;52.422;13.024;2023-11-19T02:29:18;139.70;;;116.67;;
18196;SDS011;9224;52.422;13.024;2023-11-19T02:31:44;140.10;;;116.90;;
18196;SDS011;9224;52.422;13.024;2023-11-19T02:34:12;141.90;;;118.43;;
18196;SDS011;9224;52.422;13.024;2023-11-19T02:36:38;141.53;;;117.43;;
18196;SDS011;9224;52.422;13.024;2023-11-19T02:39:06;140.30;;;116.33;;
18196;SDS011;9224;52.422;13.024;2023-11-19T02:41:35;139.27;;;116.17;;
18196;SDS011;9224;52.422;13.024;2023-11-19T02:44:05;139.17;;;116.37;;
18196;SDS011;9224;52.422;13.024;2023-11-19T02:46:33;139.47;;;116.37;;
18196;SDS011;9224;52.422;13.024;2023-11-19T02:49:00;138.90;;;114.87;;
18196;SDS011;9224;52.422;13.024;2023-11-19T02:51:26;139.10;;;114.93;;
18196;SDS011;9224;52.422;13.024;2023-11-19T02:53:55;140.30;;;115.33;;
18196;SDS011;9224;52.422;13.024;2023-11-19T02:56:22;139.90;;;116.00;;
18196;SDS011;9224;52.422;13.024;2023-11-19T02:58:51;137.10;;;114.10;;
18196;SDS011;9224;52.422;13.024;2023-11-19T03:01:24;138.70;;;114.53;;
18196;SDS011;9224;52.422;13.024;2023-11-19T03:03:56;138.13;;;114.53;;
18196;SDS011;9224;52.422;13.024;2023-11-19T03:06:23;139.47;;;115.13;;
18196;SDS011;9224;52.422;13.024;2023-11-19T03:08:50;139.37;;;116.07;;
18196;SDS011;9224;52.422;13.024;2023-11-19T03:11:16;138.70;;;115.10;;
18196;SDS011;9224;52.422;13.024;2023-11-19T03:13:43;138.40;;;115.33;;
18196;SDS011;9224;52.422;13.024;2023-11-19T03:16:10;135.77;;;113.77;;
18196;SDS011;9224;52.422;13.024;2023-11-19T03:18:37;137.17;;;114.43;;
18196;SDS011;9224;52.422;13.024;2023-11-19T03:21:06;137.73;;;115.53;;
18196;SDS011;9224;52.422;13.024;2023-11-19T03:23:33;137.93;;;114.83;;
18196;SDS011;9224;52.422;13.024;2023-11-19T03:26:00;140.33;;;116.63;;
18196;SDS011;9224;52.422;13.024;2023-11-19T03:28:28;136.50;;;114.37;;
18196;SDS011;9224;52.422;13.024;2023-11-19T03:30:56;136.97;;;114.33;;
18196;SDS011;9224;52.422;13.024;2023-11-19T03:33:22;136.43;;;114.50;;
18196;SDS011;9224;52.422;13.024;2023-11-19T03:35:53;137.93;;;115.93;;
18196;SDS011;9224;52.422;13.024;2023-11-19T03:38:22;138.63;;;115.20;;
18196;SDS011;9224;52.422;13.024;2023-11-19T03:40:49;138.63;;;115.93;;
18196;SDS011;9224;52.422;13.024;2023-11-19T03:43:16;138.40;;;115.47;;
18196;SDS011;9224;52.422;13.024;2023-11-19T03:45:44;138.40;;;115.20;;
18196;SDS011;9224;52.422;13.024;2023-11-19T03:48:11;138.47;;;116.10;;
18196;SDS011;9224;52.422;13.024;2023-11-19T03:50:38;139.67;;;115.63;;
18196;SDS011;9224;52.422;13.024;2023-11-19T03:53:04;139.60;;;115.87;;
18196;SDS011;9224;52.422;13.024;2023-11-19T03:55:33;142.03;;;117.47;;
18196;SDS011;9224;52.422;13.024;2023-11-19T03:57:59;139.67;;;116.00;;
18196;SDS011;9224;52.422;13.024;2023-11-19T04:00:26;140.63;;;116.53;;
18196;SDS011;9224;52.422;13.024;2023-11-19T04:02:53;141.17;;;116.60;;
18196;SDS011;9224;52.422;13.024;2023-11-19T04:05:19;141.10;;;116.97;;
18196;SDS011;9224;52.422;13.024;2023-11-19T04:07:45;140.00;;;115.93;;
18196;SDS011;9224;52.422;13.024;2023-11-19T04:10:12;140.27;;;116.73;;
18196;SDS011;9224;52.422;13.024;2023-11-19T04:12:41;139.23;;;116.17;;
18196;SDS011;9224;52.422;13.024;2023-11-19T04:15:08;137.93;;;114.80;;
18196;SDS011;9224;52.422;13.024;2023-11-19T04:17:35;138.10;;;115.87;;
18196;SDS011;9224;52.422;13.024;2023-11-19T04:20:02;140.43;;;115.73;;
18196;SDS011;9224;52.422;13.024;2023-11-19T04:22:29;138.03;;;114.23;;
18196;SDS011;9224;52.422;13.024;2023-11-19T04:24:56;136.70;;;114.83;;
18196;SDS011;9224;52.422;13.024;2023-11-19T04:27:23;137.43;;;115.20;;
18196;SDS011;9224;52.422;13.024;2023-11-19T04:29:51;137.03;;;114.13;;
18196;SDS011;9224;52.422;13.024;2023-11-19T04:32:18;136.20;;;114.80;;
18196;SDS011;9224;52.422;13.024;2023-11-19T04:34:46;134.47;;;112.73;;
18196;SDS011;9224;52.422;13.024;2023-11-19T04:37:12;136.73;;;114.43;;
18196;SDS011;9224;52.422;13.024;2023-11-19T04:39:39;135.27;;;114.23;;
18196;SDS011;9224;52.422;13.024;2023-11-19T04:42:06;136.40;;;114.40;;
18196;SDS011;9224;52.422;13.024;2023-11-19T04:44:32;134.03;;;113.23;;
18196;SDS011;9224;52.422;13.024;2023-11-19T04:47:00;134.27;;;113.10;;
18196;SDS011;9224;52.422;13.024;2023-11-19T04:49:27;134.07;;;113.27;;
18196;SDS011;9224;52.422;13.024;2023-11-19T04:51:55;133.47;;;112.90;;
18196;SDS011;9224;52.422;13.024;2023-11-19T04:54:22;134.20;;;113.03;;
18196;SDS011;9224;52.422;13.024;2023-11-19T04:56:49;133.90;;;113.33;;
18196;SDS011;9224;52.422;13.024;2023-11-19T04:59:16;133.90;;;113.03;;
18196;SDS011;9224;52.422;13.024;2023-11-19T05:01:46;135.07;;;113.97;;
18196;SDS011;9224;52.422;13.024;2023-11-19T05:04:14;135.10;;;113.43;;
18196;SDS011;9224;52.422;13.024;2023-11-19T05:06:41;137.77;;;115.17;;
18196;SDS011;9224;52.422;13.024;2023-11-19T05:09:08;136.17;;;114.50;;
18196;SDS011;9224;52.422;13.024;2023-11-19T05:11:37;136.70;;;114.30;;
18196;SDS011;9224;52.422;13.024;2023-11-19T05:14:04;139.73;;;115.93;;
18196;SDS011;9224;52.422;13.024;2023-11-19T05:16:31;137.00;;;115.27;;
18196;SDS011;9224;52.422;13.024;2023-11-19T05:18:58;136.87;;;115.10;;
18196;SDS011;9224;52.422;13.024;2023-11-19T05:21:26;138.40;;;115.30;;
18196;SDS011;9224;52.422;13.024;2023-11-19T05:23:52;138.50;;;115.17;;
18196;SDS011;9224;52.422;13.024;2023-11-19T05:26:19;138.87;;;115.17;;
18196;SDS011;9224;52.422;13.024;2023-11-19T05:28:46;136.93;;;114.70;;
18196;SDS011;9224;52.422;13.024;2023-11-19T05:31:13;135.60;;;113.30;;
18196;SDS011;9224;52.422;13.024;2023-11-19T05:33:40;136.67;;;115.03;;
18196;SDS011;9224;52.422;13.024;2023-11-19T05:36:07;135.27;;;114.10;;
18196;SDS011;9224;52.422;13.024;2023-11-19T05:38:35;137.30;;;114.37;;
18196;SDS011;9224;52.422;13.024;2023-11-19T05:41:02;138.53;;;115.80;;
18196;SDS011;9224;52.422;13.024;2023-11-19T05:43:29;137.23;;;115.57;;
18196;SDS011;9224;52.422;13.024;2023-11-19T05:45:56;139.80;;;116.63;;
18196;SDS011;9224;52.422;13.024;2023-11-19T05:48:24;137.37;;;115.10;;
18196;SDS011;9224;52.422;13.024;2023-11-19T05:50:52;138.97;;;115.53;;
18196;SDS011;9224;52.422;13.024;2023-11-19T05:53:19;138.10;;;115.27;;
18196;SDS011;9224;52.422;13.024;2023-11-19T05:55:47;135.07;;;113.17;;
18196;SDS011;9224;52.422;13.024;2023-11-19T05:58:19;135.77;;;114.30;;
18196;SDS011;9224;52.422;13.024;2023-11-19T06:00:49;138.43;;;115.47;;
18196;SDS011;9224;52.422;13.024;2023-11-19T06:03:15;136.27;;;114.67;;
18196;SDS011;9224;52.422;13.024;2023-11-19T06:05:44;136.83;;;115.20;;
18196;SDS011;9224;52.422;13.024;2023-11-19T06:08:10;137.37;;;115.17;;
18196;SDS011;9224;52.422;13.024;2023-11-19T06:10:38;137.23;;;115.63;;
18196;SDS011;9224;52.422;13.024;2023-11-19T06:13:06;137.87;;;115.33;;
18196;SDS011;9224;52.422;13.024;2023-11-19T06:15:35;137.20;;;115.27;;
18196;SDS011;9224;52.422;13.024;2023-11-19T06:18:02;138.27;;;115.07;;
18196;SDS011;9224;52.422;13.024;2023-11-19T06:20:29;137.10;;;115.13;;
18196;SDS011;9224;52.422;13.024;2023-11-19T06:22:56;135.77;;;114.27;;
18196;SDS011;9224;52.422;13.024;2023-11-19T06:25:23;136.47;;;114.70;;
18196;SDS011;9224;52.422;13.024;2023-11-19T06:27:50;139.17;;;115.77;;
18196;SDS011;9224;52.422;13.024;2023-11-19T06:30:18;138.20;;;114.73;;
18196;SDS011;9224;52.422;13.024;2023-11-19T06:32:45;135.93;;;114.27;;
18196;SDS011;9224;52.422;13.024;2023-11-19T06:35:12;140.60;;;116.03;;
18196;SDS011;9224;52.422;13.024;2023-11-19T06:37:39;133.50;;;113.37;;
18196;SDS011;9224;52.422;13.024;2023-11-19T06:40:07;134.27;;;113.73;;
18196;SDS011;9224;52.422;13.024;2023-11-19T06:42:34;134.57;;;113.00;;
18196;SDS011;9224;52.422;13.024;2023-11-19T06:45:01;136.33;;;116.20;;
18196;SDS011;9224;52.422;13.024;2023-11-19T06:47:30;135.30;;;113.60;;
18196;SDS011;9224;52.422;13.024;2023-11-19T06:49:56;135.00;;;113.80;;
18196;SDS011;9224;52.422;13.024;2023-11-19T06:52:23;134.80;;;114.03;;
18196;SDS011;9224;52.422;13.024;2023-11-19T06:54:50;133.83;;;113.43;;
18196;SDS011;9224;52.422;13.024;2023-11-19T06:57:17;136.13;;;115.03;;
18196;SDS011;9224;52.422;13.024;2023-11-19T06:59:45;134.50;;;113.97;;
18196;SDS011;9224;52.422;13.024;2023-11-19T07:02:12;135.87;;;114.47;;
18196;SDS011;9224;52.422;13.024;2023-11-19T07:04:40;137.93;;;114.67;;
18196;SDS011;9224;52.422;13.024;2023-11-19T07:07:07;138.40;;;115.33;;
18196;SDS011;9224;52.422;13.024;2023-11-19T07:09:34;136.70;;;114.87;;
18196;SDS011;9224;52.422;13.024;2023-11-19T07:12:02;137.47;;;114.87;;
18196;SDS011;9224;52.422;13.024;2023-11-19T07:14:30;138.83;;;115.93;;
18196;SDS011;9224;52.422;13.024;2023-11-19T07:16:56;136.97;;;115.80;;
18196;SDS011;9224;52.422;13.024;2023-11-19T07:19:23;135.17;;;115.03;;
18196;SDS011;9224;52.422;13.024;2023-11-19T07:21:51;135.30;;;114.67;;
18196;SDS011;9224;52.422;13.024;2023-11-19T07:24:19;134.87;;;114.63;;
18196;SDS011;9224;52.422;13.024;2023-11-19T07:26:47;134.37;;;114.70;;
18196;SDS011;9224;52.422;13.024;2023-11-19T07:29:14;137.53;;;115.93;;
18196;SDS011;9224;52.422;13.024;2023-11-19T07:31:41;136.57;;;116.33;;
18196;SDS011;9224;52.422;13.024;2023-11-19T07:34:09;135.83;;;114.97;;
18196;SDS011;9224;52.422;13.024;2023-11-19T07:36:36;136.07;;;114.60;;
18196;SDS011;9224;52.422;13.024;2023-11-19T07:39:05;137.67;;;116.57;;
18196;SDS011;9224;52.422;13.024;2023-11-19T07:41:33;136.43;;;115.73;;
18196;SDS011;9224;52.422;13.024;2023-11-19T07:44:00;137.40;;;115.37;;
18196;SDS011;9224;52.422;13.024;2023-11-19T07:46:27;136.97;;;115.73;;
18196;SDS011;9224;52.422;13.024;2023-11-19T07:48:54;140.30;;;117.17;;
18196;SDS011;9224;52.422;13.024;2023-11-19T07:51:20;135.73;;;114.37;;
18196;SDS011;9224;52.422;13.024;2023-11-19T07:53:47;135.67;;;114.53;;
18196;SDS011;9224;52.422;13.024;2023-11-19T07:56:15;137.53;;;116.00;;
18196;SDS011;9224;52.422;13.024;2023-11-19T07:58:42;136.47;;;115.17;;
18196;SDS011;9224;52.422;13.024;2023-11-19T08:01:09;135.77;;;114.80;;
18196;SDS011;9224;52.422;13.024;2023-11-19T08:03:35;135.37;;;114.23;;
18196;SDS011;9224;52.422;13.024;2023-11-19T08:06:03;138.40;;;116.23;;
18196;SDS011;9224;52.422;13.024;2023-11-19T08:08:30;138.00;;;115.67;;
18196;SDS011;9224;52.422;13.024;2023-11-19T08:10:58;136.13;;;114.70;;
18196;SDS011;9224;52.422;13.024;2023-11-19T08:13:26;137.13;;;114.93;;
18196;SDS011;9224;52.422;13.024;2023-11-19T08:15:52;137.70;;;115.63;;
18196;SDS011;9224;52.422;13.024;2023-11-19T08:18:19;137.00;;;115.30;;
18196;SDS011;9224;52.422;13.024;2023-11-19T08:20:45;138.10;;;115.50;;
18196;SDS011;9224;52.422;13.024;2023-11-19T08:23:17;136.73;;;115.67;;
18196;SDS011;9224;52.422;13.024;2023-11-19T08:25:44;137.47;;;114.90;;
18196;SDS011;9224;52.422;13.024;2023-11-19T08:28:11;137.40;;;115.83;;
18196;SDS011;9224;52.422;13.024;2023-11-19T08:30:39;137.13;;;116.07;;
18196;SDS011;9224;52.422;13.024;2023-11-19T08:33:05;140.27;;;116.77;;
18196;SDS011;9224;52.422;13.024;2023-11-19T08:35:32;139.63;;;116.33;;
18196;SDS011;9224;52.422;13.024;2023-11-19T08:37:59;141.33;;;117.53;;
18196;SDS011;9224;52.422;13.024;2023-11-19T08:40:26;138.20;;;116.23;;
18196;SDS011;9224;52.422;13.024;2023-11-19T08:42:53;140.20;;;116.60;;
18196;SDS011;9224;52.422;13.024;2023-11-19T08:45:21;137.80;;;116.70;;
18196;SDS011;9224;52.422;13.024;2023-11-19T08:47:49;137.27;;;115.37;;
18196;SDS011;9224;52.422;13.024;2023-11-19T08:50:15;137.33;;;115.40;;
18196;SDS011;9224;52.422;13.024;2023-11-19T08:52:42;137.23;;;115.80;;
18196;SDS011;9224;52.422;13.024;2023-11-19T08:55:09;138.07;;;115.93;;
18196;SDS011;9224;52.422;13.024;2023-11-19T08:57:38;136.93;;;115.13;;
18196;SDS011;9224;52.422;13.024;2023-11-19T09:00:05;135.87;;;114.83;;
18196;SDS011;9224;52.422;13.024;2023-11-19T09:02:33;137.53;;;115.33;;
18196;SDS011;9224;52.422;13.024;2023-11-19T09:05:01;135.40;;;114.40;;
18196;SDS011;9224;52.422;13.024;2023-11-19T09:07:28;137.37;;;114.83;;
18196;SDS011;9224;52.422;13.024;2023-11-19T09:09:54;135.33;;;114.93;;
18196;SDS011;9224;52.422;13.024;2023-11-19T09:12:21;135.30;;;115.20;;
18196;SDS011;9224;52.422;13.024;2023-11-19T09:14:48;136.87;;;115.37;;
18196;SDS011;9224;52.422;13.024;2023-11-19T09:17:15;139.97;;;114.97;;
18196;SDS011;9224;52.422;13.024;2023-11-19T09:19:43;135.53;;;113.97;;
18196;SDS011;9224;52.422;13.024;2023-11-19T09:22:11;138.53;;;113.33;;
18196;SDS011;9224;52.422;13.024;2023-11-19T09:24:37;134.57;;;113.03;;
18196;SDS011;9224;52.422;13.024;2023-11-19T09:27:04;132.60;;;112.27;;
18196;SDS011;9224;52.422;13.024;2023-11-19T09:29:31;132.50;;;111.57;;
18196;SDS011;9224;52.422;13.024;2023-11-19T09:34:36;133.60;;;113.80;;
18196;SDS011;9224;52.422;13.024;2023-11-19T09:37:03;135.40;;;114.27;;
18196;SDS011;9224;52.422;13.024;2023-11-19T09:39:31;135.13;;;114.07;;
18196;SDS011;9224;52.422;13.024;2023-11-19T09:41:58;137.47;;;114.23;;
18196;SDS011;9224;52.422;13.024;2023-11-19T09:44:24;135.87;;;115.10;;
18196;SDS011;9224;52.422;13.024;2023-11-19T09:46:51;138.10;;;114.60;;
18196;SDS011;9224;52.422;13.024;2023-11-19T09:49:19;137.10;;;115.60;;
18196;SDS011;9224;52.422;13.024;2023-11-19T09:51:48;140.63;;;115.83;;
18196;SDS011;9224;52.422;13.024;2023-11-19T09:54:15;141.23;;;116.00;;
18196;SDS011;9224;52.422;13.024;2023-11-19T09:56:43;140.73;;;116.27;;
18196;SDS011;9224;52.422;13.024;2023-11-19T09:59:10;144.53;;;116.70;;
18196;SDS011;9224;52.422;13.024;2023-11-19T10:01:37;139.53;;;115.47;;
18196;SDS011;9224;52.422;13.024;2023-11-19T10:04:04;141.00;;;115.40;;
18196;SDS011;9224;52.422;13.024;2023-11-19T10:06:32;138.23;;;114.83;;
18196;SDS011;9224;52.422;13.024;2023-11-19T10:08:58;140.27;;;114.67;;
18196;SDS011;9224;52.422;13.024;2023-11-19T10:11:25;143.57;;;116.43;;
18196;SDS011;9224;52.422;13.024;2023-11-19T10:13:53;142.63;;;116.90;;
18196;SDS011;9224;52.422;13.024;2023-11-19T10:16:20;139.43;;;116.37;;
18196;SDS011;9224;52.422;13.024;2023-11-19T10:18:48;143.20;;;117.07;;
18196;SDS011;9224;52.422;13.024;2023-11-19T10:21:17;144.07;;;116.30;;
18196;SDS011;9224;52.422;13.024;2023-11-19T10:23:48;143.10;;;116.80;;
18196;SDS011;9224;52.422;13.024;2023-11-19T10:26:15;146.17;;;116.83;;
18196;SDS011;9224;52.422;13.024;2023-11-19T10:28:42;146.83;;;117.53;;
18196;SDS011;9224;52.422;13.024;2023-11-19T10:31:12;143.37;;;117.27;;
18196;SDS011;9224;52.422;13.024;2023-11-19T10:33:39;150.80;;;118.57;;
18196;SDS011;9224;52.422;13.024;2023-11-19T10:36:10;152.90;;;119.33;;
18196;SDS011;9224;52.422;13.024;2023-11-19T10:38:37;146.33;;;117.30;;
18196;SDS011;9224;52.422;13.024;2023-11-19T10:41:03;153.83;;;116.77;;
18196;SDS011;9224;52.422;13.024;2023-11-19T10:43:30;149.47;;;116.50;;
18196;SDS011;9224;52.422;13.024;2023-11-19T10:46:08;148.63;;;117.13;;
18196;SDS011;9224;52.422;13.024;2023-11-19T10:48:38;146.87;;;117.20;;
18196;SDS011;9224;52.422;13.024;2023-11-19T10:51:05;145.13;;;117.63;;
18196;SDS011;9224;52.422;13.024;2023-11-19T10:53:46;155.43;;;117.60;;
18196;SDS011;9224;52.422;13.024;2023-11-19T10:56:16;151.50;;;117.87;;
18196;SDS011;9224;52.422;13.024;2023-11-19T10:58:44;145.77;;;116.67;;
18196;SDS011;9224;52.422;13.024;2023-11-19T11:01:13;146.80;;;117.57;;
18196;SDS011;9224;52.422;13.024;2023-11-19T11:03:42;149.33;;;117.23;;
18196;SDS011;9224;52.422;13.024;2023-11-19T11:06:09;150.73;;;117.67;;
18196;SDS011;9224;52.422;13.024;2023-11-19T11:08:37;148.90;;;117.40;;
18196;SDS011;9224;52.422;13.024;2023-11-19T11:11:04;150.53;;;117.97;;
18196;SDS011;9224;52.422;13.024;2023-11-19T11:13:33;154.77;;;118.33;;
18196;SDS011;9224;52.422;13.024;2023-11-19T11:16:01;153.33;;;118.23;;
18196;SDS011;9224;52.422;13.024;2023-11-19T11:18:29;153.83;;;119.17;;
18196;SDS011;9224;52.422;13.024;2023-11-19T11:21:00;149.97;;;118.50;;
18196;SDS011;9224;52.422;13.024;2023-11-19T11:26:50;150.93;;;118.47;;
18196;SDS011;9224;52.422;13.024;2023-11-19T11:29:41;154.37;;;118.47;;
18196;SDS011;9224;52.422;13.024;2023-11-19T11:32:14;149.20;;;118.43;;
18196;SDS011;9224;52.422;13.024;2023-11-19T11:34:51;151.23;;;117.20;;
18196;SDS011;9224;52.422;13.024;2023-11-19T11:37:29;147.10;;;117.93;;
18196;SDS011;9224;52.422;13.024;2023-11-19T11:39:58;150.40;;;117.80;;
18196;SDS011;9224;52.422;13.024;2023-11-19T11:42:32;145.37;;;117.83;;
18196;SDS011;9224;52.422;13.024;2023-11-19T11:44:59;148.57;;;117.87;;
18196;SDS011;9224;52.422;13.024;2023-11-19T11:50:51;148.90;;;117.57;;
18196;SDS011;9224;52.422;13.024;2023-11-19T11:53:22;148.97;;;117.63;;
18196;SDS011;9224;52.422;13.024;2023-11-19T11:55:56;148.00;;;117.60;;
18196;SDS011;9224;52.422;13.024;2023-11-19T11:58:35;148.27;;;117.57;;
18196;SDS011;9224;52.422;13.024;2023-11-19T12:01:03;150.77;;;116.27;;
18196;SDS011;9224;52.422;13.024;2023-11-19T12:03:32;157.23;;;118.77;;
18196;SDS011;9224;52.422;13.024;2023-11-19T12:05:58;156.77;;;119.73;;
18196;SDS011;9224;52.422;13.024;2023-11-19T12:08:27;151.90;;;118.67;;
18196;SDS011;9224;52.422;13.024;2023-11-19T12:10:55;155.33;;;118.83;;
18196;SDS011;9224;52.422;13.024;2023-11-19T12:13:24;150.97;;;118.60;;
18196;SDS011;9224;52.422;13.024;2023-11-19T12:16:06;158.20;;;119.43;;
18196;SDS011;9224;52.422;13.024;2023-11-19T12:18:33;153.67;;;118.30;;
18196;SDS011;9224;52.422;13.024;2023-11-19T12:21:00;153.17;;;119.83;;
18196;SDS011;9224;52.422;13.024;2023-11-19T12:23:29;155.97;;;119.10;;
18196;SDS011;9224;52.422;13.024;2023-11-19T12:25:56;155.10;;;119.53;;
18196;SDS011;9224;52.422;13.024;2023-11-19T12:28:23;154.07;;;119.70;;
18196;SDS011;9224;52.422;13.024;2023-11-19T12:30:52;156.07;;;119.43;;
18196;SDS011;9224;52.422;13.024;2023-11-19T12:33:19;159.33;;;118.93;;
18196;SDS011;9224;52.422;13.024;2023-11-19T12:35:47;158.63;;;120.03;;
18196;SDS011;9224;52.422;13.024;2023-11-19T12:38:20;159.73;;;119.57;;
18196;SDS011;9224;52.422;13.024;2023-11-19T12:40:48;156.43;;;119.53;;
18196;SDS011;9224;52.422;13.024;2023-11-19T12:43:34;163.40;;;120.77;;
18196;SDS011;9224;52.422;13.024;2023-11-19T12:46:16;161.37;;;120.43;;
18196;SDS011;9224;52.422;13.024;2023-11-19T12:48:44;159.57;;;120.33;;
18196;SDS011;9224;52.422;13.024;2023-11-19T12:51:13;157.37;;;119.33;;
18196;SDS011;9224;52.422;13.024;2023-11-19T12:53:47;164.63;;;119.83;;
18196;SDS011;9224;52.422;13.024;2023-11-19T12:56:16;162.77;;;120.87;;
18196;SDS011;9224;52.422;13.024;2023-11-19T12:58:43;159.70;;;119.97;;
18196;SDS011;9224;52.422;13.024;2023-11-19T13:01:09;167.03;;;121.43;;
18196;SDS011;9224;52.422;13.024;2023-11-19T13:03:36;162.37;;;119.97;;
18196;SDS011;9224;52.422;13.024;2023-11-19T13:06:06;164.70;;;120.17;;
18196;SDS011;9224;52.422;13.024;2023-11-19T13:08:38;157.77;;;119.67;;
18196;SDS011;9224;52.422;13.024;2023-11-19T13:11:05;155.80;;;118.93;;
18196;SDS011;9224;52.422;13.024;2023-11-19T13:13:49;154.83;;;119.10;;
18196;SDS011;9224;52.422;13.024;2023-11-19T13:16:20;153.90;;;118.30;;
18196;SDS011;9224;52.422;13.024;2023-11-19T13:18:47;159.67;;;118.27;;
18196;SDS011;9224;52.422;13.024;2023-11-19T13:21:13;166.20;;;119.60;;
18196;SDS011;9224;52.422;13.024;2023-11-19T13:23:40;158.87;;;120.67;;
18196;SDS011;9224;52.422;13.024;2023-11-19T13:26:07;160.33;;;121.20;;
18196;SDS011;9224;52.422;13.024;2023-11-19T13:28:35;168.67;;;120.07;;
18196;SDS011;9224;52.422;13.024;2023-11-19T13:31:01;158.70;;;118.07;;
18196;SDS011;9224;52.422;13.024;2023-11-19T13:33:28;158.47;;;119.73;;
18196;SDS011;9224;52.422;13.024;2023-11-19T13:35:54;162.20;;;118.57;;
18196;SDS011;9224;52.422;13.024;2023-11-19T13:38:24;158.23;;;120.67;;
18196;SDS011;9224;52.422;13.024;2023-11-19T13:40:51;164.70;;;120.90;;
18196;SDS011;9224;52.422;13.024;2023-11-19T13:43:17;161.33;;;120.40;;
18196;SDS011;9224;52.422;13.024;2023-11-19T13:45:45;157.90;;;119.30;;
18196;SDS011;9224;52.422;13.024;2023-11-19T13:48:12;160.10;;;120.30;;
18196;SDS011;9224;52.422;13.024;2023-11-19T13:50:39;160.47;;;120.07;;
18196;SDS011;9224;52.422;13.024;2023-11-19T13:53:07;165.33;;;120.37;;
18196;SDS011;9224;52.422;13.024;2023-11-19T13:55:33;162.93;;;119.63;;
18196;SDS011;9224;52.422;13.024;2023-11-19T13:58:00;173.73;;;121.70;;
18196;SDS011;9224;52.422;13.024;2023-11-19T14:00:27;167.83;;;118.30;;
18196;SDS011;9224;52.422;13.024;2023-11-19T14:02:55;161.67;;;120.20;;
18196;SDS011;9224;52.422;13.024;2023-11-19T14:05:22;156.67;;;117.30;;
18196;SDS011;9224;52.422;13.024;2023-11-19T14:07:48;165.00;;;120.80;;
18196;SDS011;9224;52.422;13.024;2023-11-19T14:10:16;161.13;;;120.17;;